createdAt,value
2019-05-12T00:00:10.565Z,7.30
2019-05-12T00:01:18.758Z,6.80
2019-05-12T00:02:12.638Z,7.20
2019-05-12T00:06:14.172Z,4.80
2019-05-12T00:07:14.158Z,7.80
2019-05-12T00:08:14.166Z,5.20
2019-05-12T00:09:14.159Z,6.20
2019-05-12T00:10:14.169Z,6.50
2019-05-12T00:11:14.165Z,6.30
2019-05-12T00:12:14.178Z,6.60
2019-05-12T00:13:14.173Z,8.40
2019-05-12T00:14:14.185Z,7.10
2019-05-12T00:15:14.191Z,12.90
2019-05-12T00:16:14.188Z,14.90
2019-05-12T00:17:14.193Z,10.20
2019-05-12T00:18:14.254Z,47.50
2019-05-12T00:19:14.199Z,19.50
2019-05-12T00:20:14.205Z,7.00
2019-05-12T00:21:14.214Z,8.70
2019-05-12T00:22:14.217Z,7.60
2019-05-12T00:23:24.929Z,5.90
2019-05-12T00:24:14.229Z,5.00
2019-05-12T00:25:14.231Z,7.50
2019-05-12T00:26:14.238Z,5.40
2019-05-12T00:27:14.239Z,8.30
2019-05-12T00:28:14.232Z,5.10
2019-05-12T00:29:14.241Z,8.90
2019-05-12T00:30:14.255Z,10.00
2019-05-12T00:31:14.250Z,7.50
2019-05-12T00:32:14.254Z,8.50
2019-05-12T00:33:14.271Z,6.90
2019-05-12T00:34:14.270Z,8.30
2019-05-12T00:35:14.274Z,5.60
2019-05-12T00:36:14.266Z,8.60
2019-05-12T00:37:14.273Z,9.20
2019-05-12T00:38:14.284Z,6.80
2019-05-12T00:39:14.289Z,7.70
2019-05-12T00:40:14.286Z,4.60
2019-05-12T00:41:14.287Z,8.10
2019-05-12T00:42:14.295Z,8.10
2019-05-12T00:43:14.299Z,12.80
2019-05-12T00:44:14.305Z,3.70
2019-05-12T00:45:14.319Z,6.90
2019-05-12T00:46:14.315Z,8.20
2019-05-12T00:47:14.314Z,9.80
2019-05-12T00:48:14.321Z,6.00
2019-05-12T00:49:14.365Z,9.10
2019-05-12T00:50:14.320Z,6.50
2019-05-12T00:51:14.339Z,10.10
2019-05-12T00:52:14.334Z,7.50
2019-05-12T00:53:14.347Z,7.70
2019-05-12T00:54:14.345Z,5.70
2019-05-12T00:55:14.353Z,15.30
2019-05-12T00:56:14.354Z,10.90
2019-05-12T00:57:14.353Z,10.90
2019-05-12T00:58:14.358Z,9.00
2019-05-12T00:59:14.371Z,8.80
2019-05-12T01:00:14.374Z,7.60
2019-05-12T01:01:14.377Z,6.50
2019-05-12T01:02:14.379Z,9.60
2019-05-12T01:03:14.382Z,13.40
2019-05-12T01:04:14.382Z,11.10
2019-05-12T01:05:14.395Z,9.00
2019-05-12T01:06:14.391Z,11.10
2019-05-12T01:07:14.397Z,11.00
2019-05-12T01:08:14.408Z,13.90
2019-05-12T01:09:14.424Z,8.00
2019-05-12T01:10:14.419Z,9.30
2019-05-12T01:11:14.419Z,6.70
2019-05-12T01:12:14.416Z,7.80
2019-05-12T01:13:14.430Z,8.90
2019-05-12T01:14:14.425Z,6.40
2019-05-12T01:15:14.436Z,7.50
2019-05-12T01:16:14.429Z,4.40
2019-05-12T01:17:14.438Z,10.80
2019-05-12T01:18:14.430Z,7.70
2019-05-12T01:19:14.441Z,11.70
2019-05-12T01:20:14.451Z,10.90
2019-05-12T01:21:14.451Z,7.60
2019-05-12T01:22:14.446Z,6.60
2019-05-12T01:23:14.459Z,8.20
2019-05-12T01:24:14.459Z,6.90
2019-05-12T01:25:14.470Z,5.40
2019-05-12T01:26:14.480Z,8.10
2019-05-12T01:27:14.477Z,6.50
2019-05-12T01:28:14.475Z,11.60
2019-05-12T01:29:14.479Z,10.40
2019-05-12T01:30:14.495Z,9.40
2019-05-12T01:31:14.488Z,9.70
2019-05-12T01:32:14.490Z,5.70
2019-05-12T09:09:03.455Z,3.20
2019-05-12T09:10:04.163Z,4.30
2019-05-12T09:11:03.600Z,4.10
2019-05-12T09:12:03.608Z,3.40
2019-05-12T09:13:04.068Z,3.70
2019-05-12T09:14:03.579Z,5.40
2019-05-12T09:15:04.748Z,2.20
2019-05-12T09:16:04.341Z,3.80
2019-05-12T09:17:07.286Z,4.90
2019-05-12T09:18:04.680Z,7.00
2019-05-12T09:19:04.946Z,4.00
2019-05-12T09:20:08.143Z,4.20
2019-05-12T09:21:03.820Z,2.50
2019-05-12T09:22:05.497Z,1.80
2019-05-12T09:23:04.946Z,1.20
2019-05-12T09:24:04.159Z,2.00
2019-05-12T09:25:06.140Z,4.70
2019-05-12T09:26:04.141Z,4.60
2019-05-12T09:27:06.913Z,2.40
2019-05-12T09:28:03.837Z,2.40
2019-05-12T09:29:03.503Z,1.90
2019-05-12T09:30:07.587Z,4.00
2019-05-12T09:32:05.328Z,4.70
2019-05-12T09:33:04.117Z,2.40
2019-05-12T09:34:11.390Z,2.80
2019-05-12T09:35:03.959Z,1.20
2019-05-12T09:36:04.329Z,1.90
2019-05-12T09:37:04.020Z,2.70
2019-05-12T09:38:05.894Z,2.90
2019-05-12T09:39:05.463Z,1.40
2019-05-12T09:40:04.583Z,3.50
2019-05-12T09:41:05.236Z,1.80
2019-05-12T09:42:03.816Z,4.40
2019-05-12T09:43:08.719Z,2.70
2019-05-12T09:44:04.571Z,1.40
2019-05-12T09:45:08.085Z,2.00
2019-05-12T09:46:04.230Z,1.80
2019-05-12T09:47:04.073Z,1.60
2019-05-12T09:48:04.926Z,3.10
2019-05-12T09:49:04.082Z,1.50
2019-05-12T09:50:04.334Z,1.90
2019-05-12T09:51:05.110Z,2.30
2019-05-12T09:52:03.726Z,2.00
2019-05-12T09:53:09.290Z,2.20
2019-05-12T09:54:05.236Z,1.70
2019-05-12T09:55:04.263Z,3.10
2019-05-12T09:56:04.443Z,3.80
2019-05-12T09:57:04.414Z,1.60
2019-05-12T09:58:04.071Z,2.00
2019-05-12T09:59:17.444Z,1.90
2019-05-12T10:00:04.458Z,1.90
2019-05-12T10:01:03.655Z,1.80
2019-05-12T10:02:03.781Z,2.30
2019-05-12T10:03:04.813Z,1.00
2019-05-12T10:04:03.613Z,2.40
2019-05-12T10:05:03.931Z,2.00
2019-05-12T10:06:03.805Z,2.00
2019-05-12T10:07:03.903Z,1.20
2019-05-12T10:08:04.512Z,1.50
2019-05-12T10:09:03.599Z,1.00
2019-05-12T10:10:03.838Z,2.20
2019-05-12T10:11:03.803Z,2.80
2019-05-12T10:12:05.543Z,2.50
2019-05-12T10:13:04.790Z,1.80
2019-05-12T10:14:06.536Z,1.30
2019-05-12T10:15:04.262Z,2.10
2019-05-12T10:16:07.375Z,2.70
2019-05-12T10:17:03.796Z,2.50
2019-05-12T10:18:10.964Z,1.10
2019-05-12T10:19:04.071Z,2.20
2019-05-12T10:20:03.714Z,1.80
2019-05-12T10:21:03.743Z,1.00
2019-05-12T10:22:03.756Z,2.40
2019-05-12T10:23:04.563Z,1.50
2019-05-12T10:24:05.086Z,1.90
2019-05-12T10:25:04.081Z,1.60
2019-05-12T10:26:09.428Z,1.40
2019-05-12T10:27:04.003Z,3.30
2019-05-12T10:28:11.313Z,1.70
2019-05-12T10:29:16.450Z,4.30
2019-05-12T10:30:11.977Z,2.60
2019-05-12T10:31:04.232Z,1.80
2019-05-12T10:32:04.131Z,4.10
2019-05-12T10:33:04.126Z,2.10
2019-05-12T10:34:03.941Z,2.10
2019-05-12T10:35:03.958Z,4.70
2019-05-12T10:36:06.700Z,2.90
2019-05-12T10:37:04.203Z,3.30
2019-05-12T10:38:06.303Z,2.20
2019-05-12T10:39:04.309Z,1.90
2019-05-12T10:40:04.014Z,2.70
2019-05-12T10:41:04.399Z,3.40
2019-05-12T10:42:04.063Z,3.00
2019-05-12T10:43:04.779Z,1.70
2019-05-12T10:44:04.171Z,1.20
2019-05-12T10:45:04.389Z,2.70
2019-05-12T10:46:04.317Z,5.10
2019-05-12T10:47:04.567Z,1.50
2019-05-12T10:48:04.151Z,2.00
2019-05-12T10:49:04.175Z,3.00
2019-05-12T10:50:04.205Z,11.50
2019-05-12T10:51:04.192Z,1.50
2019-05-12T10:52:04.210Z,1.10
2019-05-12T10:53:04.762Z,1.60
2019-05-12T10:54:12.100Z,1.40
2019-05-12T10:55:04.506Z,2.00
2019-05-12T10:56:04.271Z,1.90
2019-05-12T10:57:04.934Z,2.50
2019-05-12T10:58:07.145Z,1.40
2019-05-12T10:59:04.402Z,2.30
2019-05-12T11:00:04.506Z,0.90
2019-05-12T11:01:08.411Z,3.70
2019-05-12T11:02:04.369Z,1.50
2019-05-12T11:03:10.798Z,1.70
2019-05-12T11:04:04.398Z,1.70
2019-05-12T11:05:04.419Z,1.40
2019-05-12T11:06:07.527Z,2.80
2019-05-12T11:07:04.764Z,1.80
2019-05-12T11:08:09.453Z,2.90
2019-05-12T11:09:04.738Z,2.90
2019-05-12T11:10:15.366Z,1.30
2019-05-12T11:11:04.539Z,3.60
2019-05-12T11:12:04.525Z,1.20
2019-05-12T11:13:08.172Z,2.30
2019-05-12T11:14:04.548Z,2.40
2019-05-12T11:15:07.052Z,2.40
2019-05-12T11:16:04.578Z,1.60
2019-05-12T11:17:07.910Z,2.60
2019-05-12T11:18:04.612Z,2.40
2019-05-12T11:19:08.751Z,2.30
2019-05-12T11:20:04.658Z,1.60
2019-05-12T11:21:04.668Z,1.30
2019-05-12T11:22:04.705Z,2.40
2019-05-12T11:23:04.704Z,1.90
2019-05-12T11:24:04.719Z,2.00
2019-05-12T11:25:04.731Z,1.50
2019-05-12T11:26:04.736Z,1.30
2019-05-12T11:27:04.755Z,1.80
2019-05-12T11:28:04.791Z,1.40
2019-05-12T11:29:04.795Z,4.00
2019-05-12T11:30:04.805Z,1.50
2019-05-12T11:31:04.816Z,1.10
2019-05-12T11:32:04.855Z,1.60
2019-05-12T11:33:04.860Z,1.50
2019-05-12T11:34:05.074Z,1.70
2019-05-12T11:35:04.900Z,0.80
2019-05-12T11:36:04.903Z,2.60
2019-05-12T11:37:04.920Z,1.10
2019-05-12T11:38:04.938Z,1.30
2019-05-12T11:39:04.955Z,0.80
2019-05-12T11:40:04.987Z,1.70
2019-05-12T11:41:10.045Z,1.20
2019-05-12T11:42:05.027Z,1.70
2019-05-12T11:43:05.044Z,1.30
2019-05-12T11:44:05.051Z,1.40
2019-05-12T11:45:05.053Z,2.20
2019-05-12T11:46:05.073Z,1.90
2019-05-12T11:47:05.093Z,2.90
2019-05-12T11:48:09.504Z,1.20
2019-05-12T11:49:05.121Z,1.60
2019-05-12T11:50:09.701Z,1.40
2019-05-12T11:51:05.145Z,1.60
2019-05-12T11:52:07.649Z,2.30
2019-05-12T11:53:05.174Z,1.10
2019-05-12T11:54:09.096Z,1.40
2019-05-12T11:55:05.220Z,1.90
2019-05-12T11:56:07.794Z,2.00
2019-05-12T11:57:05.243Z,1.60
2019-05-12T11:58:09.802Z,3.20
2019-05-12T11:59:05.270Z,1.90
2019-05-12T12:00:05.519Z,1.40
2019-05-12T12:01:08.308Z,1.30
2019-05-12T12:02:05.337Z,1.20
2019-05-12T12:03:12.702Z,1.40
2019-05-12T12:04:05.353Z,2.30
2019-05-12T12:05:05.360Z,2.20
2019-05-12T12:06:05.384Z,1.50
2019-05-12T12:07:05.395Z,1.00
2019-05-12T12:08:05.414Z,2.70
2019-05-12T12:10:05.440Z,2.00
2019-05-12T12:11:10.488Z,2.10
2019-05-12T12:12:07.202Z,2.00
2019-05-12T12:13:05.500Z,1.60
2019-05-12T12:14:08.855Z,2.00
2019-05-12T12:15:05.523Z,1.70
2019-05-12T12:16:07.046Z,2.50
2019-05-12T12:17:05.549Z,2.40
2019-05-12T12:18:12.947Z,2.50
2019-05-12T12:19:05.981Z,1.80
2019-05-12T12:20:05.579Z,1.90
2019-05-12T12:21:07.640Z,1.50
2019-05-12T12:22:05.616Z,2.30
2019-05-12T12:23:10.512Z,4.90
2019-05-12T12:24:05.640Z,3.00
2019-05-12T12:25:10.833Z,1.90
2019-05-12T12:26:05.663Z,2.10
2019-05-12T12:27:05.667Z,2.70
2019-05-12T12:28:05.686Z,1.90
2019-05-12T12:29:05.711Z,3.10
2019-05-12T12:30:15.760Z,2.10
2019-05-12T12:31:07.775Z,2.90
2019-05-12T12:32:09.940Z,4.20
2019-05-12T12:33:05.750Z,2.80
2019-05-12T12:34:05.763Z,2.70
2019-05-12T12:35:09.020Z,2.10
2019-05-12T12:36:05.781Z,1.70
2019-05-12T12:37:05.811Z,1.80
2019-05-12T12:39:05.813Z,2.40
2019-05-12T12:40:05.840Z,3.70
2019-05-12T12:41:05.835Z,2.40
2019-05-12T12:42:05.854Z,2.00
2019-05-12T12:43:05.864Z,1.50
2019-05-12T12:44:05.866Z,3.10
2019-05-12T12:45:05.881Z,3.10
2019-05-12T12:46:10.630Z,2.40
2019-05-12T12:47:05.906Z,3.10
2019-05-12T12:48:05.943Z,2.30
2019-05-12T12:49:10.127Z,5.00
2019-05-12T12:50:05.933Z,3.90
2019-05-12T12:51:05.951Z,4.40
2019-05-12T12:52:05.961Z,2.00
2019-05-12T12:53:05.974Z,2.40
2019-05-12T12:54:05.982Z,1.50
2019-05-12T12:55:08.423Z,1.20
2019-05-12T12:56:06.033Z,3.00
2019-05-12T12:57:09.817Z,1.50
2019-05-12T12:58:06.033Z,1.30
2019-05-12T12:59:10.398Z,1.80
2019-05-12T13:00:06.065Z,2.60
2019-05-12T13:01:06.084Z,2.60
2019-05-12T13:02:09.181Z,1.40
2019-05-12T13:03:06.136Z,1.80
2019-05-12T13:04:06.536Z,1.60
2019-05-12T13:05:06.148Z,1.10
2019-05-12T13:06:06.181Z,1.60
2019-05-12T13:07:06.176Z,1.20
2019-05-12T13:08:06.197Z,2.20
2019-05-12T13:09:07.956Z,1.80
2019-05-12T13:10:09.537Z,2.10
2019-05-12T13:11:06.242Z,1.40
2019-05-12T13:12:15.747Z,1.80
2019-05-12T13:13:06.277Z,1.10
2019-05-12T13:14:06.297Z,1.50
2019-05-12T13:15:06.299Z,1.50
2019-05-12T13:16:06.338Z,1.10
2019-05-12T13:17:06.423Z,1.00
2019-05-12T13:18:08.940Z,2.20
2019-05-12T13:19:12.137Z,1.60
2019-05-12T13:20:06.398Z,1.80
2019-05-12T13:21:06.404Z,2.10
2019-05-12T13:22:09.105Z,1.20
2019-05-12T13:23:06.431Z,1.70
2019-05-12T13:24:06.467Z,1.60
2019-05-12T13:25:08.582Z,2.10
2019-05-12T13:26:06.483Z,2.10
2019-05-12T13:27:06.499Z,2.10
2019-05-12T13:28:10.779Z,0.90
2019-05-12T13:29:06.544Z,1.60
2019-05-12T13:30:18.557Z,2.00
2019-05-12T13:31:11.717Z,2.00
2019-05-12T13:32:06.593Z,1.10
2019-05-12T13:33:08.830Z,1.80
2019-05-12T13:34:06.619Z,1.50
2019-05-12T13:35:09.771Z,1.70
2019-05-12T13:36:06.636Z,4.30
2019-05-12T13:37:09.252Z,1.10
2019-05-12T13:38:06.660Z,1.30
2019-05-12T13:39:11.445Z,1.50
2019-05-12T13:40:06.715Z,1.70
2019-05-12T13:41:09.613Z,2.60
2019-05-12T13:42:06.719Z,2.30
2019-05-12T13:43:09.215Z,1.90
2019-05-12T13:44:06.744Z,1.40
2019-05-12T13:45:06.756Z,2.80
2019-05-12T13:46:06.774Z,2.40
2019-05-12T13:47:06.771Z,3.30
2019-05-12T13:48:09.738Z,3.60
2019-05-12T13:49:06.796Z,2.30
2019-05-12T13:50:06.824Z,3.60
2019-05-12T13:51:12.361Z,3.20
2019-05-12T13:52:06.835Z,3.70
2019-05-12T13:53:10.029Z,2.70
2019-05-12T13:54:06.858Z,2.20
2019-05-12T13:55:07.791Z,2.50
2019-05-12T13:56:06.886Z,2.30
2019-05-12T13:57:12.261Z,3.80
2019-05-12T13:58:06.894Z,3.10
2019-05-12T13:59:06.915Z,2.10
2019-05-12T14:00:10.730Z,2.90
2019-05-12T14:01:19.095Z,3.20
2019-05-12T14:02:06.940Z,4.80
2019-05-12T14:03:09.545Z,1.80
2019-05-12T14:04:06.967Z,2.30
2019-05-12T14:05:11.298Z,3.30
2019-05-12T14:06:06.994Z,3.40
2019-05-12T14:07:09.349Z,2.30
2019-05-12T14:08:07.010Z,1.90
2019-05-12T14:09:07.029Z,1.10
2019-05-12T14:10:07.170Z,1.60
2019-05-12T14:11:07.051Z,2.00
2019-05-12T14:12:07.077Z,1.90
2019-05-12T14:13:07.089Z,1.70
2019-05-12T14:14:11.330Z,1.60
2019-05-12T14:15:07.117Z,2.80
2019-05-12T14:16:07.149Z,2.00
2019-05-12T14:17:07.145Z,1.60
2019-05-12T14:18:10.289Z,2.80
2019-05-12T14:19:07.184Z,2.10
2019-05-12T14:20:09.197Z,4.40
2019-05-12T14:21:07.210Z,3.50
2019-05-12T14:22:07.222Z,2.80
2019-05-12T14:23:08.122Z,2.70
2019-05-12T14:24:07.254Z,1.30
2019-05-12T14:25:07.305Z,2.90
2019-05-12T14:26:09.208Z,3.70
2019-05-12T14:27:07.294Z,2.00
2019-05-12T14:28:09.415Z,2.10
2019-05-12T14:29:07.335Z,2.10
2019-05-12T14:30:10.349Z,2.50
2019-05-12T14:31:07.368Z,2.20
2019-05-12T14:32:12.185Z,3.10
2019-05-12T14:33:07.390Z,3.80
2019-05-12T14:34:10.503Z,1.40
2019-05-12T14:35:07.424Z,2.20
2019-05-12T14:36:07.440Z,2.80
2019-05-12T14:37:10.444Z,3.90
2019-05-12T14:38:07.472Z,2.00
2019-05-12T14:39:10.172Z,2.10
2019-05-12T14:40:07.520Z,3.50
2019-05-12T14:41:11.587Z,6.00
2019-05-12T14:42:07.548Z,3.50
2019-05-12T14:43:10.305Z,2.10
2019-05-12T14:44:07.569Z,1.50
2019-05-12T14:45:07.593Z,2.90
2019-05-12T14:46:10.365Z,1.60
2019-05-12T14:47:07.607Z,0.90
2019-05-12T14:48:09.239Z,1.70
2019-05-12T14:49:07.648Z,2.10
2019-05-12T14:50:07.658Z,1.90
2019-05-12T14:51:07.674Z,2.00
2019-05-12T14:52:07.699Z,1.00
2019-05-12T14:53:07.706Z,2.70
2019-05-12T14:54:07.728Z,2.20
2019-05-12T14:55:07.790Z,1.70
2019-05-12T14:56:07.763Z,3.40
2019-05-12T14:57:07.787Z,2.10
2019-05-12T14:58:09.143Z,1.60
2019-05-12T14:59:07.817Z,1.60
2019-05-12T15:00:11.391Z,1.80
2019-05-12T15:01:07.844Z,2.90
2019-05-12T15:02:07.842Z,1.80
2019-05-12T15:03:13.002Z,2.50
2019-05-12T15:04:07.877Z,2.90
2019-05-12T15:05:10.789Z,2.00
2019-05-12T15:06:07.896Z,2.30
2019-05-12T15:07:10.048Z,3.50
2019-05-12T15:08:07.940Z,2.40
2019-05-12T15:09:11.532Z,2.40
2019-05-12T15:10:08.799Z,1.70
2019-05-12T15:11:07.993Z,2.50
2019-05-12T15:12:07.983Z,1.90
2019-05-12T15:13:08.020Z,2.30
2019-05-12T15:14:08.028Z,1.60
2019-05-12T15:15:09.213Z,1.10
2019-05-12T15:16:08.061Z,3.50
2019-05-12T15:17:08.061Z,2.10
2019-05-12T15:18:09.943Z,2.70
2019-05-12T15:19:09.766Z,1.60
2019-05-12T15:20:10.576Z,2.50
2019-05-12T15:21:08.157Z,1.00
2019-05-12T15:22:11.757Z,1.80
2019-05-12T15:23:08.163Z,1.40
2019-05-12T15:24:13.944Z,2.40
2019-05-12T15:25:08.183Z,1.40
2019-05-12T15:26:09.535Z,2.10
2019-05-12T15:27:08.213Z,1.60
2019-05-12T15:28:08.229Z,3.20
2019-05-12T15:29:13.390Z,5.20
2019-05-12T15:30:19.120Z,2.50
2019-05-12T15:31:08.261Z,2.10
2019-05-12T15:32:08.336Z,2.70
2019-05-12T15:33:08.286Z,2.90
2019-05-12T15:34:08.297Z,1.90
2019-05-12T15:35:08.312Z,2.30
2019-05-12T15:36:08.331Z,2.50
2019-05-12T15:37:08.340Z,1.50
2019-05-12T15:38:09.432Z,3.00
2019-05-12T15:39:08.363Z,2.50
2019-05-12T15:40:08.367Z,2.00
2019-05-12T15:41:10.793Z,1.60
2019-05-12T15:42:08.405Z,2.40
2019-05-12T15:43:09.309Z,2.40
2019-05-12T15:44:08.414Z,2.20
2019-05-12T15:45:13.798Z,1.70
2019-05-12T15:46:08.438Z,1.80
2019-05-12T15:47:08.466Z,1.40
2019-05-12T15:48:08.462Z,2.00
2019-05-12T15:49:09.046Z,1.50
2019-05-12T15:50:08.483Z,1.50
2019-05-12T15:51:08.891Z,2.50
2019-05-12T15:52:08.499Z,2.00
2019-05-12T15:53:15.945Z,1.30
2019-05-12T15:54:11.599Z,2.70
2019-05-12T15:55:08.531Z,1.40
2019-05-12T15:56:15.008Z,3.00
2019-05-12T15:57:08.559Z,2.00
2019-05-12T15:58:08.565Z,1.90
2019-05-12T15:59:08.576Z,1.70
2019-05-12T16:00:08.589Z,2.80
2019-05-12T16:01:08.599Z,2.90
2019-05-12T16:02:14.470Z,4.00
2019-05-12T16:03:08.621Z,3.90
2019-05-12T16:04:11.728Z,1.90
2019-05-12T16:05:08.638Z,1.50
2019-05-12T16:06:11.799Z,3.60
2019-05-12T16:07:08.663Z,2.30
2019-05-12T16:08:08.667Z,3.10
2019-05-12T16:09:08.682Z,2.90
2019-05-12T16:10:08.692Z,2.70
2019-05-12T16:11:08.699Z,1.90
2019-05-12T16:12:18.988Z,2.90
2019-05-12T16:13:08.784Z,2.20
2019-05-12T16:14:08.731Z,1.30
2019-05-12T16:15:14.894Z,2.70
2019-05-12T16:16:08.769Z,2.40
2019-05-12T16:17:08.762Z,2.80
2019-05-12T16:18:10.232Z,2.90
2019-05-12T16:19:08.781Z,2.10
2019-05-12T16:20:08.792Z,2.30
2019-05-12T16:21:09.489Z,2.00
2019-05-12T16:22:08.823Z,1.90
2019-05-12T16:23:08.831Z,2.50
2019-05-12T16:24:11.241Z,2.90
2019-05-12T16:25:08.837Z,3.20
2019-05-12T16:26:12.526Z,2.10
2019-05-12T16:27:08.868Z,2.70
2019-05-12T16:28:15.538Z,5.60
2019-05-12T16:29:08.879Z,3.10
2019-05-12T16:30:08.893Z,2.10
2019-05-12T16:31:08.945Z,2.90
2019-05-12T16:32:22.370Z,3.90
2019-05-12T16:33:14.370Z,3.10
2019-05-12T16:34:08.927Z,2.30
2019-05-12T16:35:08.944Z,2.20
2019-05-12T16:36:11.493Z,3.60
2019-05-12T16:37:08.962Z,1.90
2019-05-12T16:38:17.329Z,3.10
2019-05-12T16:39:08.977Z,3.30
2019-05-12T16:40:08.994Z,2.70
2019-05-12T16:42:10.610Z,3.70
2019-05-12T16:43:09.017Z,2.20
2019-05-12T16:44:17.635Z,2.10
2019-05-12T16:45:10.354Z,2.10
2019-05-12T16:46:09.058Z,2.00
2019-05-12T16:47:09.054Z,4.20
2019-05-12T16:48:18.841Z,2.40
2019-05-12T16:49:09.084Z,3.00
2019-05-12T16:50:15.226Z,2.30
2019-05-12T16:51:09.095Z,2.70
2019-05-12T16:52:09.109Z,3.50
2019-05-12T16:53:13.385Z,2.50
2019-05-12T16:54:09.153Z,4.10
2019-05-12T16:55:09.143Z,1.50
2019-05-12T16:56:09.148Z,3.00
2019-05-12T16:57:13.142Z,2.90
2019-05-12T16:58:09.163Z,2.50
2019-05-12T16:59:17.093Z,5.00
2019-05-12T17:00:09.185Z,2.50
2019-05-12T17:01:09.198Z,4.10
2019-05-12T17:02:10.002Z,3.60
2019-05-12T17:03:09.223Z,3.00
2019-05-12T17:04:09.221Z,2.40
2019-05-12T17:05:15.687Z,2.10
2019-05-12T17:06:09.240Z,5.00
2019-05-12T17:07:09.676Z,3.60
2019-05-12T17:08:09.261Z,1.80
2019-05-12T17:09:09.258Z,2.80
2019-05-12T17:10:16.266Z,3.10
2019-05-12T17:11:24.248Z,3.30
2019-05-12T17:12:09.287Z,2.80
2019-05-12T17:13:13.695Z,2.50
2019-05-12T17:14:09.308Z,2.30
2019-05-12T17:15:09.317Z,2.40
2019-05-12T17:16:09.320Z,5.10
2019-05-12T17:17:10.873Z,3.50
2019-05-12T17:18:09.350Z,3.00
2019-05-12T17:19:10.610Z,2.50
2019-05-12T17:20:09.365Z,5.50
2019-05-12T17:21:09.392Z,2.00
2019-05-12T17:22:09.379Z,3.60
2019-05-12T17:23:09.398Z,2.30
2019-05-12T17:24:09.405Z,2.20
2019-05-12T17:25:10.558Z,2.50
2019-05-12T17:26:09.426Z,3.30
2019-05-12T17:27:17.965Z,2.30
2019-05-12T17:28:09.454Z,3.90
2019-05-12T17:29:09.463Z,3.00
2019-05-12T17:30:09.456Z,4.60
2019-05-12T17:31:09.466Z,2.50
2019-05-12T17:32:09.475Z,2.90
2019-05-12T17:33:15.935Z,2.30
2019-05-12T17:34:10.421Z,3.40
2019-05-12T17:35:10.205Z,3.30
2019-05-12T17:36:12.493Z,2.50
2019-05-12T17:37:09.527Z,3.90
2019-05-12T17:38:13.932Z,2.60
2019-05-12T17:39:09.554Z,3.40
2019-05-12T17:40:14.657Z,4.10
2019-05-12T17:41:09.566Z,1.60
2019-05-12T17:42:13.076Z,2.70
2019-05-12T17:43:11.945Z,5.90
2019-05-12T17:44:09.606Z,3.40
2019-05-12T17:45:14.995Z,2.30
2019-05-12T17:46:12.374Z,3.80
2019-05-12T17:47:12.879Z,2.10
2019-05-12T17:48:09.629Z,2.20
2019-05-12T17:49:09.640Z,3.40
2019-05-12T17:50:10.473Z,3.80
2019-05-12T17:51:09.658Z,1.70
2019-05-12T17:52:12.996Z,4.50
2019-05-12T17:53:09.680Z,3.30
2019-05-12T17:54:13.426Z,3.40
2019-05-12T17:55:10.918Z,4.30
2019-05-12T17:56:09.712Z,2.50
2019-05-12T17:57:14.984Z,2.90
2019-05-12T17:58:09.719Z,4.90
2019-05-12T17:59:14.926Z,5.10
2019-05-12T18:00:10.895Z,3.60
2019-05-12T18:01:09.750Z,3.90
2019-05-12T18:02:15.041Z,3.20
2019-05-12T18:03:20.481Z,3.70
2019-05-12T18:04:09.783Z,4.30
2019-05-12T18:05:12.286Z,3.00
2019-05-12T18:06:09.816Z,5.30
2019-05-12T18:07:13.210Z,3.60
2019-05-12T18:08:09.815Z,3.40
2019-05-12T18:09:15.872Z,5.10
2019-05-12T18:10:09.840Z,5.00
2019-05-12T18:11:11.339Z,4.40
2019-05-12T18:12:09.864Z,4.40
2019-05-12T18:13:17.191Z,3.40
2019-05-12T18:14:09.867Z,4.80
2019-05-12T18:15:09.874Z,3.70
2019-05-12T18:16:11.682Z,4.00
2019-05-12T18:17:09.901Z,5.20
2019-05-12T18:18:09.905Z,5.50
2019-05-12T18:19:15.337Z,3.80
2019-05-12T18:20:09.923Z,3.10
2019-05-12T18:21:14.788Z,3.30
2019-05-12T18:22:09.937Z,5.80
2019-05-12T18:23:09.945Z,4.70
2019-05-12T18:24:11.906Z,6.40
2019-05-12T18:25:09.986Z,5.40
2019-05-12T18:26:14.432Z,3.00
2019-05-12T18:27:09.983Z,7.80
2019-05-12T18:28:10.002Z,5.40
2019-05-12T18:29:10.008Z,7.20
2019-05-12T18:30:10.030Z,5.70
2019-05-12T18:31:10.014Z,6.10
2019-05-12T18:32:10.035Z,4.40
2019-05-12T18:33:10.031Z,6.20
2019-05-12T18:34:10.058Z,5.50
2019-05-12T18:35:10.049Z,3.10
2019-05-12T18:36:10.058Z,3.30
2019-05-12T18:37:10.073Z,4.60
2019-05-12T18:38:18.105Z,2.70
2019-05-12T18:39:14.305Z,5.40
2019-05-12T18:40:10.090Z,5.30
2019-05-12T18:41:10.100Z,5.20
2019-05-12T18:42:10.121Z,1.80
2019-05-12T18:43:10.127Z,4.50
2019-05-12T18:44:10.120Z,3.70
2019-05-12T18:45:12.544Z,5.00
2019-05-12T18:46:10.141Z,5.60
2019-05-12T18:47:10.149Z,5.20
2019-05-12T18:48:19.878Z,4.00
2019-05-12T18:49:12.764Z,2.80
2019-05-12T18:50:10.168Z,5.40
2019-05-12T18:51:12.275Z,3.70
2019-05-12T18:52:10.185Z,3.10
2019-05-12T18:53:14.826Z,4.50
2019-05-12T18:54:12.138Z,5.90
2019-05-12T18:55:10.219Z,4.60
2019-05-12T18:56:15.993Z,7.90
2019-05-12T18:57:10.240Z,6.70
2019-05-12T18:58:10.234Z,3.80
2019-05-12T18:59:11.909Z,4.50
2019-05-12T19:00:10.252Z,4.50
2019-05-12T19:01:10.259Z,4.40
2019-05-12T19:02:14.723Z,5.90
2019-05-12T19:03:10.276Z,4.40
2019-05-12T19:04:10.281Z,5.60
2019-05-12T19:05:15.398Z,4.70
2019-05-12T19:06:10.307Z,3.30
2019-05-12T19:07:10.309Z,5.20
2019-05-12T19:08:10.308Z,6.20
2019-05-12T19:09:10.323Z,4.60
2019-05-12T19:10:10.315Z,5.50
2019-05-12T19:11:19.920Z,2.90
2019-05-12T19:12:18.003Z,6.30
2019-05-12T19:13:10.385Z,4.90
2019-05-12T19:14:10.364Z,4.30
2019-05-12T19:15:15.872Z,4.40
2019-05-12T19:16:11.407Z,6.20
2019-05-12T19:17:10.563Z,5.70
2019-05-12T19:18:10.384Z,4.20
2019-05-12T19:19:18.362Z,6.40
2019-05-12T19:20:10.407Z,6.80
2019-05-12T19:21:15.671Z,2.90
2019-05-12T19:22:10.420Z,5.00
2019-05-12T19:23:10.428Z,5.20
2019-05-12T19:24:15.311Z,5.20
2019-05-12T19:25:10.436Z,3.20
2019-05-12T19:26:10.440Z,4.30
2019-05-12T19:27:15.822Z,3.70
2019-05-12T19:28:10.723Z,5.70
2019-05-12T19:29:10.468Z,3.40
2019-05-12T19:30:10.460Z,5.00
2019-05-12T19:31:10.492Z,5.70
2019-05-12T19:32:10.476Z,5.30
2019-05-12T19:33:11.022Z,2.80
2019-05-12T19:34:20.085Z,5.30
2019-05-12T19:35:15.795Z,4.90
2019-05-12T19:36:10.506Z,4.00
2019-05-12T19:37:10.525Z,8.10
2019-05-12T19:38:10.533Z,3.90
2019-05-12T19:39:10.537Z,5.30
2019-05-12T19:40:14.094Z,4.60
2019-05-12T19:41:10.556Z,3.40
2019-05-12T19:42:15.675Z,5.80
2019-05-12T19:43:10.570Z,6.90
2019-05-12T19:44:10.571Z,6.70
2019-05-12T19:45:16.232Z,4.80
2019-05-12T19:46:10.583Z,3.10
2019-05-12T19:47:10.610Z,4.80
2019-05-12T19:48:23.160Z,6.80
2019-05-12T19:49:10.602Z,2.80
2019-05-12T19:50:14.942Z,3.50
2019-05-12T19:51:21.928Z,4.80
2019-05-12T19:52:10.631Z,5.50
2019-05-12T19:53:10.644Z,6.40
2019-05-12T19:54:10.662Z,4.30
2019-05-12T19:55:10.653Z,4.40
2019-05-12T19:56:10.661Z,4.90
2019-05-12T19:57:12.940Z,4.70
2019-05-12T19:58:11.612Z,4.50
2019-05-12T19:59:10.682Z,3.70
2019-05-12T20:00:10.745Z,4.20
2019-05-12T20:01:10.701Z,5.20
2019-05-12T20:02:10.711Z,7.50
2019-05-12T20:03:10.703Z,4.30
2019-05-12T20:04:10.708Z,5.40
2019-05-12T20:05:14.376Z,5.50
2019-05-12T20:06:10.705Z,3.30
2019-05-12T20:07:10.779Z,5.70
2019-05-12T20:08:10.732Z,5.40
2019-05-12T20:09:11.164Z,3.90
2019-05-12T20:10:12.809Z,7.50
2019-05-12T20:11:10.743Z,5.00
2019-05-12T20:12:16.469Z,4.40
2019-05-12T20:13:13.428Z,3.80
2019-05-12T20:14:16.652Z,3.80
2019-05-12T20:15:10.777Z,5.30
2019-05-12T20:16:11.525Z,6.80
2019-05-12T20:17:10.782Z,5.70
2019-05-12T20:18:10.794Z,6.40
2019-05-12T20:19:10.801Z,10.20
2019-05-12T20:20:10.806Z,4.00
2019-05-12T20:21:10.813Z,3.40
2019-05-12T20:22:10.810Z,4.60
2019-05-12T20:23:10.838Z,4.10
2019-05-12T20:24:10.839Z,6.90
2019-05-12T20:25:10.849Z,3.90
2019-05-12T20:26:10.855Z,4.40
2019-05-12T20:27:17.258Z,5.60
2019-05-12T20:28:12.036Z,4.30
2019-05-12T20:29:10.856Z,4.30
2019-05-12T20:30:17.142Z,7.60
2019-05-12T20:31:10.877Z,5.20
2019-05-12T20:32:10.886Z,2.80
2019-05-12T20:33:10.889Z,7.10
2019-05-12T20:34:11.261Z,6.60
2019-05-12T20:35:10.924Z,3.30
2019-05-12T20:36:10.917Z,6.40
2019-05-12T20:37:14.342Z,7.60
2019-05-12T20:38:10.940Z,5.80
2019-05-12T20:39:16.863Z,4.30
2019-05-12T20:40:13.437Z,7.70
2019-05-12T20:41:19.515Z,5.70
2019-05-12T20:42:10.952Z,4.10
2019-05-12T20:43:14.369Z,3.80
2019-05-12T20:44:17.323Z,8.40
2019-05-12T20:45:13.405Z,4.40
2019-05-12T20:46:13.112Z,6.30
2019-05-12T20:47:10.981Z,7.30
2019-05-12T20:48:10.987Z,5.10
2019-05-12T20:49:12.656Z,5.40
2019-05-12T20:50:10.997Z,5.90
2019-05-12T20:51:15.524Z,3.10
2019-05-12T20:52:11.004Z,6.60
2019-05-12T20:53:11.016Z,5.90
2019-05-12T20:54:14.135Z,4.70
2019-05-12T20:55:11.035Z,4.30
2019-05-12T20:56:12.077Z,4.50
2019-05-12T20:57:11.041Z,9.20
2019-05-12T20:58:13.478Z,4.80
2019-05-12T20:59:13.755Z,5.30
2019-05-12T21:00:11.067Z,6.10